createdAt,value
2022-11-24T00:00:05.779Z,97.33
2022-11-24T00:05:43.777Z,97.81
2022-11-24T00:11:15.525Z,98.18
2022-11-24T00:16:48.061Z,97.55
2022-11-24T00:22:18.962Z,97.7
2022-11-24T00:27:50.732Z,97.65
2022-11-24T00:33:22.570Z,97.93
2022-11-24T00:38:54.226Z,97.3
2022-11-24T00:44:25.932Z,98.0
2022-11-24T00:49:57.745Z,97.95
2022-11-24T00:55:30.118Z,98.21
2022-11-24T01:01:01.249Z,97.87
2022-11-24T01:06:39.746Z,96.94
2022-11-24T01:12:10.922Z,96.27
2022-11-24T01:17:42.635Z,97.48
2022-11-24T01:23:14.298Z,98.0
2022-11-24T01:28:48.054Z,97.89
2022-11-24T01:34:17.755Z,97.73
2022-11-24T01:39:49.423Z,98.76
2022-11-24T01:45:21.182Z,98.41
2022-11-24T01:50:52.963Z,98.5
2022-11-24T01:56:24.557Z,99.28
2022-11-24T02:01:56.446Z,99.01
2022-11-24T02:07:34.774Z,98.91
2022-11-24T02:13:06.198Z,98.76
2022-11-24T02:18:37.929Z,98.3
2022-11-24T02:24:09.544Z,97.58
2022-11-24T02:29:41.515Z,97.39
2022-11-24T02:35:12.941Z,97.73
2022-11-24T02:40:44.946Z,97.24
2022-11-24T02:46:16.627Z,96.73
2022-11-24T02:51:48.085Z,95.88
2022-11-24T02:57:19.790Z,95.56
2022-11-24T03:02:51.792Z,95.64
2022-11-24T03:08:27.643Z,96.46
2022-11-24T03:13:59.426Z,96.87
2022-11-24T03:19:31.219Z,98.44
2022-11-24T03:25:02.740Z,98.02
2022-11-24T03:30:34.576Z,98.49
2022-11-24T03:36:06.305Z,98.28
2022-11-24T03:41:38.046Z,98.32
2022-11-24T03:47:09.754Z,97.95
2022-11-24T03:52:41.531Z,98.18
2022-11-24T03:58:13.170Z,97.37
2022-11-24T04:03:44.922Z,97.83
2022-11-24T04:09:21.031Z,98.0
2022-11-24T04:14:52.730Z,97.38
2022-11-24T04:20:24.465Z,97.75
2022-11-24T04:25:56.162Z,97.02
2022-11-24T04:31:28.023Z,97.47
2022-11-24T04:36:59.610Z,97.46
2022-11-24T04:42:31.764Z,97.27
2022-11-24T04:48:03.122Z,96.83
2022-11-24T04:53:34.799Z,96.95
2022-11-24T04:59:08.912Z,97.16
2022-11-24T05:04:38.485Z,96.7
2022-11-24T05:10:14.428Z,96.57
2022-11-24T05:15:46.241Z,96.46
2022-11-24T05:21:17.756Z,95.46
2022-11-24T05:26:49.499Z,96.71
2022-11-24T05:32:21.354Z,96.58
2022-11-24T05:37:53.512Z,97.41
2022-11-24T05:43:24.820Z,97.73
2022-11-24T05:48:56.518Z,97.98
2022-11-24T05:54:28.234Z,96.9
2022-11-24T05:59:59.903Z,97.18
2022-11-24T06:05:31.628Z,96.81
2022-11-24T06:11:07.638Z,97.01
2022-11-24T06:16:40.415Z,96.96
2022-11-24T06:22:11.120Z,97.05
2022-11-24T06:33:14.722Z,96.38
2022-11-24T06:38:46.426Z,96.1
2022-11-24T06:44:18.051Z,96.87
2022-11-24T06:49:49.909Z,96.83
2022-11-24T06:55:22.118Z,97.05
2022-11-24T07:00:53.952Z,98.57
2022-11-24T07:06:25.567Z,99.46
2022-11-24T07:12:01.986Z,100.0
2022-11-24T07:17:33.339Z,100.0
2022-11-24T07:23:05.186Z,100.0
2022-11-24T07:28:37.583Z,100.0
2022-11-24T07:34:08.628Z,100.0
2022-11-24T07:39:40.638Z,100.0
2022-11-24T07:45:12.143Z,100.0
2022-11-24T07:50:43.845Z,100.0
2022-11-24T07:56:15.657Z,100.0
2022-11-24T08:01:47.500Z,100.0
2022-11-24T08:07:19.622Z,100.0
2022-11-24T08:12:55.346Z,100.0
2022-11-24T08:18:27.736Z,100.0
2022-11-24T08:24:00.473Z,100.0
2022-11-24T08:29:32.202Z,100.0
2022-11-24T08:35:14.794Z,100.0
2022-11-24T08:40:35.784Z,100.0
2022-11-24T08:46:07.327Z,100.0
2022-11-24T08:51:38.922Z,100.0
2022-11-24T08:57:10.691Z,100.0
2022-11-24T09:02:42.413Z,100.0
2022-11-24T09:08:14.124Z,100.0
2022-11-24T09:13:50.219Z,100.0
2022-11-24T09:19:22.173Z,100.0
2022-11-24T09:24:53.794Z,99.86
2022-11-24T09:30:26.231Z,99.0
2022-11-24T09:35:57.143Z,98.31
2022-11-24T09:41:28.861Z,98.38
2022-11-24T09:47:00.673Z,99.49
2022-11-24T09:52:32.850Z,99.4
2022-11-24T09:58:04.130Z,99.81
2022-11-24T10:03:35.835Z,98.27
2022-11-24T10:09:07.555Z,98.56
2022-11-24T10:14:43.646Z,96.87
2022-11-24T10:20:15.770Z,96.97
2022-11-24T10:25:47.133Z,98.83
2022-11-24T10:31:19.073Z,96.66
2022-11-24T10:36:50.767Z,97.66
2022-11-24T10:42:22.439Z,97.13
2022-11-24T10:47:54.015Z,97.07
2022-11-24T10:53:25.704Z,95.42
2022-11-24T10:58:57.750Z,96.1
2022-11-24T11:04:29.177Z,95.97
2022-11-24T11:10:00.767Z,96.03
2022-11-24T11:15:36.967Z,95.33
2022-11-24T11:21:08.670Z,95.67
2022-11-24T11:26:40.371Z,95.89
2022-11-24T11:37:43.828Z,94.75
2022-11-24T11:43:15.571Z,95.08
2022-11-24T11:48:47.506Z,95.14
2022-11-24T11:54:19.002Z,94.16
2022-11-24T11:59:50.798Z,93.77
2022-11-24T12:05:22.405Z,92.08
2022-11-24T12:10:54.151Z,91.25
2022-11-24T12:16:32.218Z,91.34
2022-11-24T12:22:04.122Z,90.94
2022-11-24T12:27:37.472Z,90.43
2022-11-24T12:33:07.554Z,90.59
2022-11-24T12:38:39.733Z,88.8
2022-11-24T12:44:10.954Z,89.17
2022-11-24T12:49:42.695Z,88.46
2022-11-24T12:55:14.532Z,86.5
2022-11-24T13:00:46.135Z,85.98
2022-11-24T13:06:17.928Z,86.56
2022-11-24T13:11:49.587Z,84.81
2022-11-24T13:17:43.413Z,82.9
2022-11-24T13:22:57.338Z,83.09
2022-11-24T13:28:54.324Z,84.08
2022-11-24T13:34:01.118Z,85.59
2022-11-24T13:39:40.693Z,84.62
2022-11-24T13:45:04.322Z,86.48
2022-11-24T13:50:36.331Z,85.12
2022-11-24T13:56:07.779Z,85.42
2022-11-24T14:01:39.655Z,85.84
2022-11-24T14:07:11.207Z,86.35
2022-11-24T14:12:42.831Z,84.7
2022-11-24T14:18:20.899Z,85.5
2022-11-24T14:23:53.427Z,85.55
2022-11-24T14:29:24.522Z,85.6
2022-11-24T14:34:56.318Z,85.5
2022-11-24T14:40:28.323Z,84.4
2022-11-24T14:45:59.805Z,84.78
2022-11-24T14:51:31.575Z,84.48
2022-11-24T14:57:03.123Z,85.15
2022-11-24T15:02:35.049Z,84.96
2022-11-24T15:08:06.634Z,85.19
2022-11-24T15:13:38.353Z,85.38
2022-11-24T15:19:14.642Z,84.96
2022-11-24T15:24:46.186Z,84.97
2022-11-24T15:30:17.830Z,85.67
2022-11-24T15:35:49.628Z,85.91
2022-11-24T15:41:21.378Z,85.29
2022-11-24T15:46:52.989Z,85.19
2022-11-24T15:52:25.550Z,85.8
2022-11-24T15:57:56.605Z,86.38
2022-11-24T16:03:48.118Z,86.53
2022-11-24T16:09:00.001Z,86.32
2022-11-24T16:14:31.736Z,86.02
2022-11-24T16:20:07.894Z,86.56
2022-11-24T16:25:39.493Z,86.26
2022-11-24T16:31:12.393Z,86.35
2022-11-24T16:36:43.720Z,86.78
2022-11-24T16:42:15.429Z,87.05
2022-11-24T16:47:47.209Z,87.07
2022-11-24T16:53:18.816Z,87.38
2022-11-24T16:58:50.692Z,87.82
2022-11-24T17:04:22.427Z,87.83
2022-11-24T17:09:54.096Z,87.96
2022-11-24T17:15:36.704Z,87.97
2022-11-24T17:21:10.074Z,87.48
2022-11-24T17:26:33.759Z,87.56
2022-11-24T17:32:05.551Z,87.83
2022-11-24T17:37:37.118Z,88.12
2022-11-24T17:43:08.771Z,87.93
2022-11-24T17:48:40.491Z,87.77
2022-11-24T17:54:45.731Z,88.08
2022-11-24T17:59:44.919Z,89.02
2022-11-24T18:05:16.607Z,88.68
2022-11-24T18:10:48.253Z,88.76
2022-11-24T18:16:20.291Z,89.09
2022-11-24T18:21:56.241Z,90.07
2022-11-24T18:27:27.854Z,90.08
2022-11-24T18:32:59.562Z,90.29
2022-11-24T18:38:31.293Z,90.32
2022-11-24T18:44:03.187Z,90.55
2022-11-24T18:49:34.774Z,90.65
2022-11-24T18:55:06.581Z,90.9
2022-11-24T19:00:38.224Z,90.99
2022-11-24T19:06:09.893Z,91.2
2022-11-24T19:11:42.652Z,91.75
2022-11-24T19:17:13.440Z,91.6
2022-11-24T19:22:49.515Z,91.58
2022-11-24T19:28:21.325Z,90.89
2022-11-24T19:33:52.924Z,90.89
2022-11-24T19:39:24.586Z,92.22
2022-11-24T19:44:57.131Z,92.19
2022-11-24T19:50:28.525Z,91.66
2022-11-24T19:55:59.975Z,91.73
2022-11-24T20:01:32.028Z,91.89
2022-11-24T20:07:04.366Z,91.81
2022-11-24T20:12:35.301Z,91.75
2022-11-24T20:18:07.077Z,92.37
2022-11-24T20:23:48.000Z,91.88
2022-11-24T20:29:20.780Z,91.91
2022-11-24T20:34:52.536Z,91.69
2022-11-24T20:40:24.186Z,91.82
2022-11-24T20:45:56.884Z,91.6
2022-11-24T20:51:30.725Z,91.93
2022-11-24T20:57:02.277Z,91.82
2022-11-24T21:02:34.011Z,91.99
2022-11-24T21:08:05.753Z,92.28
2022-11-24T21:13:37.569Z,92.01
2022-11-24T21:19:09.246Z,92.1
2022-11-24T21:24:45.524Z,92.15
2022-11-24T21:30:17.052Z,92.06
2022-11-24T21:35:48.759Z,91.51
2022-11-24T21:41:20.527Z,91.98
2022-11-24T21:46:56.424Z,91.47
2022-11-24T21:52:24.834Z,91.31
2022-11-24T21:57:55.655Z,92.24
2022-11-24T22:03:27.380Z,92.37
2022-11-24T22:08:59.562Z,91.87
2022-11-24T22:14:30.845Z,91.74
2022-11-24T22:20:02.668Z,91.73
2022-11-24T22:25:38.947Z,91.86
2022-11-24T22:31:10.497Z,91.84
2022-11-24T22:36:42.253Z,90.7
2022-11-24T22:42:13.966Z,91.17
2022-11-24T22:47:45.740Z,91.89
2022-11-24T22:53:17.649Z,91.47
2022-11-24T22:58:49.187Z,91.58
2022-11-24T23:04:21.055Z,92.07
2022-11-24T23:09:52.454Z,92.04
2022-11-24T23:15:24.239Z,92.25
2022-11-24T23:20:55.885Z,92.06
2022-11-24T23:26:31.971Z,92.06
2022-11-24T23:32:03.789Z,91.63
2022-11-24T23:38:07.628Z,91.7
2022-11-24T23:43:07.168Z,92.14
2022-11-24T23:48:39.456Z,92.41
2022-11-24T23:54:10.564Z,92.25
2022-11-24T23:59:42.367Z,92.85
